createdAt,value
2023-04-07T00:00:13.983Z,7.10
2023-04-07T00:02:44.405Z,7.10
2023-04-07T00:05:12.789Z,7.00
2023-04-07T00:07:48.914Z,7.10
2023-04-07T00:10:24.785Z,7.10
2023-04-07T00:12:53.030Z,7.10
2023-04-07T00:15:22.532Z,7.10
2023-04-07T00:17:50.633Z,7.00
2023-04-07T00:20:18.699Z,6.90
2023-04-07T00:22:46.734Z,7.00
2023-04-07T00:25:14.760Z,7.00
2023-04-07T00:27:42.792Z,7.00
2023-04-07T00:30:11.194Z,7.00
2023-04-07T00:32:40.797Z,6.90
2023-04-07T00:35:09.813Z,6.90
2023-04-07T00:37:37.934Z,6.90
2023-04-07T00:40:07.115Z,7.00
2023-04-07T00:42:35.474Z,7.00
2023-04-07T00:45:03.760Z,7.00
2023-04-07T00:47:32.116Z,7.10
2023-04-07T00:50:01.555Z,7.10
2023-04-07T00:52:30.212Z,7.10
2023-04-07T00:54:58.745Z,7.20
2023-04-07T00:57:27.440Z,7.10
2023-04-07T00:59:57.367Z,7.20
2023-04-07T01:02:34.280Z,7.30
2023-04-07T01:05:12.436Z,7.30
2023-04-07T01:07:51.240Z,7.30
2023-04-07T01:10:28.227Z,7.30
2023-04-07T01:13:03.315Z,7.30
2023-04-07T01:15:32.879Z,7.20
2023-04-07T01:18:08.561Z,7.20
2023-04-07T01:20:39.701Z,7.20
2023-04-07T01:23:09.121Z,7.20
2023-04-07T01:25:55.247Z,7.10
2023-04-07T01:28:56.760Z,7.10
2023-04-07T01:31:27.965Z,7.10
2023-04-07T01:33:57.800Z,7.00
2023-04-07T01:36:28.404Z,6.60
2023-04-07T01:38:57.255Z,6.50
2023-04-07T01:41:26.418Z,6.40
2023-04-07T01:43:55.950Z,6.30
2023-04-07T01:46:25.980Z,6.30
2023-04-07T01:48:54.557Z,6.30
2023-04-07T01:51:25.001Z,6.40
2023-04-07T01:53:54.268Z,6.40
2023-04-07T01:56:22.484Z,6.50
2023-04-07T01:58:50.555Z,6.70
2023-04-07T02:01:18.879Z,6.70
2023-04-07T02:03:54.110Z,6.80
2023-04-07T02:06:27.626Z,6.70
2023-04-07T02:09:00.241Z,6.70
2023-04-07T02:11:30.389Z,6.80
2023-04-07T02:13:59.912Z,6.70
2023-04-07T02:16:29.731Z,6.80
2023-04-07T02:18:59.829Z,6.90
2023-04-07T02:21:30.321Z,6.90
2023-04-07T02:24:01.588Z,6.80
2023-04-07T02:26:30.559Z,6.60
2023-04-07T02:28:58.625Z,6.50
2023-04-07T02:31:26.880Z,6.40
2023-04-07T02:33:55.159Z,6.30
2023-04-07T02:36:24.690Z,6.30
2023-04-07T02:38:52.771Z,6.40
2023-04-07T02:41:21.407Z,6.30
2023-04-07T02:43:49.594Z,6.20
2023-04-07T02:46:17.847Z,6.10
2023-04-07T02:48:46.155Z,6.20
2023-04-07T02:51:14.273Z,6.20
2023-04-07T02:53:43.639Z,6.30
2023-04-07T02:56:11.648Z,6.30
2023-04-07T02:58:39.761Z,6.40
2023-04-07T03:01:07.928Z,6.50
2023-04-07T03:03:36.209Z,6.60
2023-04-07T03:06:04.458Z,6.60
2023-04-07T03:08:32.499Z,6.70
2023-04-07T03:11:01.918Z,6.80
2023-04-07T03:13:30.845Z,6.80
2023-04-07T03:15:59.051Z,6.90
2023-04-07T03:18:27.072Z,6.80
2023-04-07T03:20:56.129Z,6.90
2023-04-07T03:23:24.705Z,6.90
2023-04-07T03:25:52.741Z,6.90
2023-04-07T03:28:22.346Z,6.90
2023-04-07T03:30:50.525Z,7.00
2023-04-07T03:33:18.645Z,7.00
2023-04-07T03:35:46.792Z,7.00
2023-04-07T03:38:14.919Z,7.00
2023-04-07T03:40:42.931Z,7.00
2023-04-07T03:43:14.121Z,6.90
2023-04-07T03:45:43.543Z,6.90
2023-04-07T03:48:12.208Z,6.90
2023-04-07T03:50:40.917Z,6.90
2023-04-07T03:53:09.384Z,6.90
2023-04-07T03:55:37.724Z,6.80
2023-04-07T03:58:05.898Z,6.80
2023-04-07T04:00:34.006Z,6.90
2023-04-07T04:03:03.778Z,7.00
2023-04-07T04:05:32.067Z,7.00
2023-04-07T04:08:00.165Z,7.00
2023-04-07T04:10:28.362Z,7.00
2023-04-07T04:12:56.724Z,7.00
2023-04-07T04:15:24.890Z,6.90
2023-04-07T04:17:53.015Z,6.90
2023-04-07T04:20:22.744Z,6.90
2023-04-07T04:22:50.782Z,6.90
2023-04-07T04:25:18.976Z,6.90
2023-04-07T04:27:47.047Z,6.90
2023-04-07T04:30:15.566Z,6.90
2023-04-07T04:32:46.649Z,6.90
2023-04-07T04:35:14.834Z,6.90
2023-04-07T04:37:44.247Z,6.80
2023-04-07T04:40:13.335Z,6.80
2023-04-07T04:42:41.583Z,6.80
2023-04-07T04:45:10.700Z,6.80
2023-04-07T04:47:39.696Z,6.80
2023-04-07T04:50:08.824Z,6.80
2023-04-07T04:52:38.170Z,6.90
2023-04-07T04:55:09.035Z,6.90
2023-04-07T04:57:37.090Z,6.80
2023-04-07T05:00:05.991Z,6.60
2023-04-07T05:02:34.214Z,6.40
2023-04-07T05:05:02.525Z,6.40
2023-04-07T05:07:31.436Z,6.40
2023-04-07T05:09:59.670Z,6.50
2023-04-07T05:12:29.077Z,6.50
2023-04-07T05:14:57.163Z,6.50
2023-04-07T05:17:25.454Z,6.50
2023-04-07T05:19:53.534Z,6.60
2023-04-07T05:22:21.549Z,6.60
2023-04-07T05:24:49.635Z,6.60
2023-04-07T05:27:17.738Z,6.70
2023-04-07T05:29:47.140Z,6.60
2023-04-07T05:32:15.595Z,6.60
2023-04-07T05:34:43.633Z,6.60
2023-04-07T05:37:11.775Z,6.60
2023-04-07T05:39:39.855Z,6.60
2023-04-07T05:42:07.935Z,6.60
2023-04-07T05:44:36.011Z,6.70
2023-04-07T05:47:08.820Z,6.70
2023-04-07T05:49:36.948Z,6.80
2023-04-07T05:52:05.983Z,6.80
2023-04-07T05:54:34.025Z,6.70
2023-04-07T05:57:02.350Z,6.60
2023-04-07T05:59:30.416Z,6.60
2023-04-07T06:01:58.506Z,6.60
2023-04-07T06:04:27.972Z,6.50
2023-04-07T06:06:56.039Z,6.50
2023-04-07T06:09:24.212Z,6.60
2023-04-07T06:11:52.244Z,6.80
2023-04-07T06:14:20.760Z,6.90
2023-04-07T06:16:48.877Z,7.00
2023-04-07T06:19:16.973Z,7.10
2023-04-07T06:21:46.387Z,7.20
2023-04-07T06:24:14.414Z,7.20
2023-04-07T06:26:42.513Z,7.30
2023-04-07T06:29:10.578Z,7.40
2023-04-07T06:31:38.806Z,7.40
2023-04-07T06:34:06.972Z,7.50
2023-04-07T06:36:35.499Z,7.60
2023-04-07T06:39:05.214Z,7.60
2023-04-07T06:41:33.258Z,7.60
2023-04-07T06:44:02.429Z,7.70
2023-04-07T06:46:30.550Z,7.80
2023-04-07T06:48:58.638Z,7.80
2023-04-07T06:51:27.726Z,7.90
2023-04-07T06:53:55.767Z,8.00
2023-04-07T06:56:26.166Z,8.00
2023-04-07T06:58:54.294Z,8.20
2023-04-07T07:01:22.407Z,8.30
2023-04-07T07:03:50.675Z,8.40
2023-04-07T07:06:18.985Z,8.50
2023-04-07T07:08:47.003Z,8.60
2023-04-07T07:11:15.006Z,8.70
2023-04-07T07:13:45.171Z,8.80
2023-04-07T07:16:13.807Z,8.90
2023-04-07T07:18:41.925Z,8.90
2023-04-07T07:21:10.099Z,8.90
2023-04-07T07:23:38.267Z,8.90
2023-04-07T07:26:06.440Z,8.90
2023-04-07T07:28:34.482Z,8.80
2023-04-07T07:31:10.500Z,8.80
2023-04-07T07:33:40.482Z,8.90
2023-04-07T07:36:09.223Z,8.90
2023-04-07T07:38:37.858Z,8.90
2023-04-07T07:41:07.155Z,8.90
2023-04-07T07:43:35.433Z,9.00
2023-04-07T07:46:04.919Z,9.00
2023-04-07T07:48:33.037Z,9.10
2023-04-07T07:51:01.323Z,9.10
2023-04-07T07:53:29.432Z,9.00
2023-04-07T07:55:57.450Z,8.80
2023-04-07T07:58:25.593Z,8.70
2023-04-07T08:00:53.657Z,8.60
2023-04-07T08:03:23.199Z,8.60
2023-04-07T08:05:51.614Z,8.60
2023-04-07T08:08:19.707Z,8.80
2023-04-07T08:10:48.896Z,8.90
2023-04-07T08:13:17.030Z,8.80
2023-04-07T08:15:45.204Z,8.80
2023-04-07T08:18:13.345Z,8.80
2023-04-07T08:20:42.756Z,8.90
2023-04-07T08:23:10.844Z,9.00
2023-04-07T08:25:40.014Z,9.00
2023-04-07T08:28:08.224Z,9.00
2023-04-07T08:30:36.446Z,9.00
2023-04-07T08:33:06.737Z,9.20
2023-04-07T08:35:34.891Z,9.30
2023-04-07T08:38:05.708Z,9.50
2023-04-07T08:40:34.749Z,9.60
2023-04-07T08:43:04.627Z,9.70
2023-04-07T08:45:34.142Z,10.00
2023-04-07T08:48:08.919Z,10.00
2023-04-07T08:50:38.057Z,10.10
2023-04-07T08:53:10.177Z,10.20
2023-04-07T08:55:38.292Z,10.40
2023-04-07T08:58:06.899Z,10.60
2023-04-07T09:00:34.999Z,10.70
2023-04-07T09:03:04.666Z,10.90
2023-04-07T09:05:33.693Z,11.00
2023-04-07T09:08:03.077Z,11.20
2023-04-07T09:10:32.498Z,11.40
2023-04-07T09:13:00.762Z,11.50
2023-04-07T09:15:32.256Z,11.50
2023-04-07T09:18:00.660Z,11.60
2023-04-07T09:20:28.734Z,11.60
2023-04-07T09:22:56.784Z,11.60
2023-04-07T09:25:27.259Z,11.60
2023-04-07T09:27:58.544Z,11.40
2023-04-07T09:30:27.360Z,11.40
2023-04-07T09:32:55.842Z,11.20
2023-04-07T09:35:24.833Z,11.20
2023-04-07T09:38:06.665Z,11.30
2023-04-07T09:40:34.968Z,11.40
2023-04-07T09:43:05.424Z,11.50
2023-04-07T09:45:36.613Z,11.50
2023-04-07T09:48:09.008Z,11.30
2023-04-07T09:50:38.187Z,11.30
2023-04-07T09:53:06.282Z,11.80
2023-04-07T09:55:35.021Z,12.00
2023-04-07T09:58:07.509Z,12.10
2023-04-07T10:00:37.013Z,12.20
2023-04-07T10:03:05.892Z,12.50
2023-04-07T10:05:35.436Z,12.70
2023-04-07T10:08:03.854Z,12.70
2023-04-07T10:10:32.876Z,12.80
2023-04-07T10:13:01.303Z,12.80
2023-04-07T10:15:32.106Z,12.90
2023-04-07T10:18:01.500Z,12.90
2023-04-07T10:20:31.010Z,13.00
2023-04-07T10:23:08.517Z,13.00
2023-04-07T10:25:37.453Z,13.10
2023-04-07T10:28:08.764Z,13.10
2023-04-07T10:30:39.111Z,13.10
2023-04-07T10:33:07.381Z,13.20
2023-04-07T10:36:04.715Z,13.10
2023-04-07T10:38:32.916Z,12.90
2023-04-07T10:41:01.228Z,12.80
2023-04-07T10:43:40.055Z,13.00
2023-04-07T10:46:09.555Z,13.10
2023-04-07T10:48:37.799Z,13.10
2023-04-07T10:51:16.767Z,13.20
2023-04-07T10:54:23.793Z,13.40
2023-04-07T10:57:12.962Z,13.50
2023-04-07T10:59:46.892Z,13.30
2023-04-07T11:02:40.679Z,13.30
2023-04-07T11:05:09.181Z,13.10
2023-04-07T11:07:49.807Z,12.30
2023-04-07T11:10:19.315Z,11.80
2023-04-07T11:13:04.090Z,11.40
2023-04-07T11:15:32.205Z,11.10
2023-04-07T11:18:17.349Z,11.00
2023-04-07T11:20:50.687Z,10.90
2023-04-07T11:23:20.050Z,10.70
2023-04-07T11:25:49.891Z,10.50
2023-04-07T11:28:18.337Z,10.20
2023-04-07T11:30:49.651Z,10.10
2023-04-07T11:33:21.383Z,10.10
2023-04-07T11:35:55.637Z,10.10
2023-04-07T11:38:25.146Z,9.90
2023-04-07T11:40:53.490Z,9.70
2023-04-07T11:43:22.903Z,9.70
2023-04-07T11:46:06.996Z,9.60
2023-04-07T11:48:37.653Z,9.60
2023-04-07T11:51:06.795Z,9.60
2023-04-07T11:53:37.842Z,9.40
2023-04-07T11:56:09.609Z,9.30
2023-04-07T11:58:38.780Z,9.20
2023-04-07T12:01:08.999Z,9.20
2023-04-07T12:03:39.130Z,9.10
2023-04-07T12:06:08.363Z,9.00
2023-04-07T12:08:41.566Z,9.10
2023-04-07T12:11:10.508Z,9.10
2023-04-07T12:13:39.105Z,9.20
2023-04-07T12:16:07.541Z,9.20
2023-04-07T12:18:36.537Z,9.20
2023-04-07T12:21:06.446Z,9.20
2023-04-07T12:23:34.552Z,9.10
2023-04-07T12:26:02.816Z,9.00
2023-04-07T12:28:31.107Z,9.00
2023-04-07T12:30:59.161Z,9.00
2023-04-07T12:33:27.282Z,9.00
2023-04-07T12:35:55.546Z,9.00
2023-04-07T12:38:25.600Z,9.10
2023-04-07T12:40:54.022Z,9.10
2023-04-07T12:43:22.052Z,9.10
2023-04-07T12:45:50.098Z,9.10
2023-04-07T12:48:18.756Z,9.20
2023-04-07T12:50:46.877Z,9.30
2023-04-07T12:53:14.937Z,9.40
2023-04-07T12:55:44.309Z,9.50
2023-04-07T12:58:13.556Z,9.60
2023-04-07T13:00:42.572Z,9.70
2023-04-07T13:03:11.071Z,9.80
2023-04-07T13:05:39.381Z,9.80
2023-04-07T13:08:07.965Z,10.00
2023-04-07T13:10:36.046Z,10.10
2023-04-07T13:13:05.530Z,10.30
2023-04-07T13:15:33.631Z,10.40
2023-04-07T13:18:01.933Z,10.50
2023-04-07T13:20:30.568Z,10.60
2023-04-07T13:23:07.733Z,10.60
2023-04-07T13:25:37.712Z,10.70
2023-04-07T13:28:07.334Z,10.90
2023-04-07T13:30:35.454Z,10.90
2023-04-07T13:33:03.660Z,11.00
2023-04-07T13:35:35.756Z,11.10
2023-04-07T13:38:04.363Z,11.10
2023-04-07T13:40:32.603Z,11.10
2023-04-07T13:43:00.961Z,11.20
2023-04-07T13:45:30.456Z,11.20
2023-04-07T13:47:58.682Z,11.20
2023-04-07T13:50:27.129Z,11.30
2023-04-07T13:52:55.276Z,11.40
2023-04-07T13:55:23.293Z,11.40
2023-04-07T13:57:51.470Z,11.60
2023-04-07T14:00:20.683Z,11.70
2023-04-07T14:02:50.326Z,11.80
2023-04-07T14:05:18.550Z,11.70
2023-04-07T14:07:46.592Z,11.70
2023-04-07T14:10:14.697Z,11.70
2023-04-07T14:12:42.702Z,11.50
2023-04-07T14:15:12.093Z,11.50
2023-04-07T14:17:40.191Z,11.30
2023-04-07T14:20:10.827Z,11.00
2023-04-07T14:22:38.915Z,11.10
2023-04-07T14:25:08.060Z,11.10
2023-04-07T14:27:36.243Z,11.10
2023-04-07T14:30:04.617Z,11.10
2023-04-07T14:32:33.405Z,11.20
2023-04-07T14:35:01.807Z,11.20
2023-04-07T14:37:36.631Z,11.20
2023-04-07T14:40:05.122Z,11.10
2023-04-07T14:42:33.550Z,11.20
2023-04-07T14:45:04.510Z,11.30
2023-04-07T14:47:32.611Z,11.30
2023-04-07T14:50:00.708Z,11.10
2023-04-07T14:52:30.153Z,11.00
2023-04-07T14:55:00.258Z,10.90
2023-04-07T14:57:28.716Z,10.80
2023-04-07T14:59:56.801Z,10.80
2023-04-07T15:02:25.079Z,10.80
2023-04-07T15:04:53.275Z,10.70
2023-04-07T15:07:21.447Z,10.80
2023-04-07T15:09:50.889Z,10.70
2023-04-07T15:12:19.335Z,10.70
2023-04-07T15:14:47.439Z,10.80
2023-04-07T15:17:15.486Z,10.90
2023-04-07T15:19:44.212Z,11.00
2023-04-07T15:22:12.339Z,11.00
2023-04-07T15:24:40.535Z,11.10
2023-04-07T15:27:10.758Z,11.10
2023-04-07T15:29:38.919Z,11.20
2023-04-07T15:32:07.280Z,11.20
2023-04-07T15:34:35.377Z,11.20
2023-04-07T15:37:04.149Z,11.10
2023-04-07T15:39:32.301Z,11.10
2023-04-07T15:42:00.727Z,11.00
2023-04-07T15:44:33.458Z,11.00
2023-04-07T15:47:01.708Z,11.10
2023-04-07T15:49:29.919Z,11.20
2023-04-07T15:51:57.909Z,11.20
2023-04-07T15:54:26.801Z,11.30
2023-04-07T15:56:54.849Z,11.30
2023-04-07T15:59:22.996Z,11.40
2023-04-07T16:01:52.935Z,11.50
2023-04-07T16:04:21.192Z,11.50
2023-04-07T16:06:49.314Z,11.40
2023-04-07T16:09:17.462Z,11.30
2023-04-07T16:11:45.647Z,11.10
2023-04-07T16:14:13.737Z,11.10
2023-04-07T16:16:44.469Z,11.10
2023-04-07T16:19:14.605Z,11.10
2023-04-07T16:21:42.734Z,11.00
2023-04-07T16:24:10.772Z,10.90
2023-04-07T16:26:38.810Z,11.00
2023-04-07T16:29:06.847Z,11.00
2023-04-07T16:31:34.937Z,11.00
2023-04-07T16:34:03.037Z,11.00
2023-04-07T16:36:32.463Z,11.00
2023-04-07T16:39:00.576Z,10.90
2023-04-07T16:41:28.687Z,10.90
2023-04-07T16:43:56.967Z,10.80
2023-04-07T16:46:28.080Z,10.80
2023-04-07T16:48:56.285Z,10.70
2023-04-07T16:51:24.806Z,10.70
2023-04-07T16:53:54.270Z,10.70
2023-04-07T16:56:24.105Z,10.60
2023-04-07T16:58:52.657Z,10.50
2023-04-07T17:01:20.795Z,10.40
2023-04-07T17:03:49.434Z,10.30
2023-04-07T17:06:17.678Z,10.20
2023-04-07T17:08:45.740Z,10.20
2023-04-07T17:11:15.425Z,10.20
2023-04-07T17:13:43.635Z,10.20
2023-04-07T17:16:14.897Z,10.10
2023-04-07T17:18:43.100Z,10.10
2023-04-07T17:21:11.141Z,10.10
2023-04-07T17:23:39.434Z,10.10
2023-04-07T17:26:07.485Z,10.20
2023-04-07T17:28:36.945Z,10.20
2023-04-07T17:31:05.096Z,10.20
2023-04-07T17:33:33.477Z,10.10
2023-04-07T17:36:03.586Z,10.10
2023-04-07T17:38:32.182Z,10.10
2023-04-07T17:41:01.762Z,10.20
2023-04-07T17:43:29.956Z,10.20
2023-04-07T17:45:59.441Z,10.20
2023-04-07T17:48:27.689Z,10.20
2023-04-07T17:50:56.296Z,10.30
2023-04-07T17:53:24.508Z,10.30
2023-04-07T17:55:52.629Z,10.20
2023-04-07T17:58:21.192Z,10.10
2023-04-07T18:00:50.529Z,10.10
2023-04-07T18:03:20.166Z,10.00
2023-04-07T18:05:49.169Z,9.90
2023-04-07T18:08:17.312Z,9.80
2023-04-07T18:10:45.478Z,9.50
2023-04-07T18:13:13.552Z,9.00
2023-04-07T18:15:41.649Z,8.40
2023-04-07T18:19:05.931Z,8.40
2023-04-07T18:21:38.341Z,8.20
2023-04-07T18:27:06.925Z,8.20
2023-04-07T18:29:49.965Z,8.10
2023-04-07T18:32:58.196Z,8.00
2023-04-07T18:55:23.400Z,8.30
2023-04-07T18:57:51.454Z,8.40
2023-04-07T19:00:19.567Z,8.50
2023-04-07T19:02:48.190Z,8.40
2023-04-07T19:05:16.549Z,8.40
2023-04-07T19:07:44.606Z,8.40
2023-04-07T19:10:12.700Z,8.50
2023-04-07T19:17:23.765Z,8.60
2023-04-07T19:19:52.077Z,8.60
2023-04-07T19:22:20.370Z,8.60
2023-04-07T19:24:48.452Z,8.60
2023-04-07T19:27:17.176Z,8.60
2023-04-07T19:29:45.351Z,8.60
2023-04-07T19:36:17.442Z,8.60
2023-04-07T19:38:45.587Z,8.70
2023-04-07T19:41:13.677Z,8.90
2023-04-07T19:43:42.566Z,8.60
2023-04-07T19:46:10.691Z,8.60
2023-04-07T19:48:40.066Z,8.50
2023-04-07T19:51:08.117Z,8.50
2023-04-07T19:53:37.621Z,8.70
2023-04-07T19:56:06.310Z,8.50
2023-04-07T19:58:35.339Z,8.50
2023-04-07T20:01:04.521Z,8.50
2023-04-07T20:03:33.295Z,8.50
2023-04-07T20:06:01.924Z,8.50
2023-04-07T20:08:30.084Z,7.70
2023-04-07T20:10:59.597Z,9.20
2023-04-07T20:13:28.092Z,8.60
2023-04-07T20:15:56.413Z,8.50
2023-04-07T20:18:24.552Z,8.80
2023-04-07T20:20:59.941Z,8.50
2023-04-07T20:23:28.252Z,8.70
2023-04-07T20:25:56.552Z,8.40
2023-04-07T20:28:26.075Z,8.80
2023-04-07T20:30:54.340Z,8.80
2023-04-07T20:33:22.561Z,8.40
2023-04-07T20:35:50.908Z,8.30
2023-04-07T20:38:20.197Z,8.30
2023-04-07T20:40:48.305Z,8.10
2023-04-07T20:43:18.256Z,8.50
2023-04-07T20:45:47.997Z,8.30
2023-04-07T20:48:18.342Z,8.30
2023-04-07T20:50:46.455Z,8.20
2023-04-07T20:53:14.558Z,8.20
2023-04-07T20:55:43.224Z,8.70
2023-04-07T20:58:11.586Z,8.00
2023-04-07T21:00:39.749Z,7.90
2023-04-07T21:03:09.438Z,7.90
2023-04-07T21:05:37.836Z,7.90
2023-04-07T21:08:06.178Z,7.90
2023-04-07T21:10:34.275Z,8.00
2023-04-07T21:13:02.449Z,7.90
2023-04-07T21:15:30.732Z,7.90
2023-04-07T21:17:58.995Z,7.90
2023-04-07T21:20:28.463Z,7.80
2023-04-07T21:22:56.554Z,8.00
2023-04-07T21:25:24.760Z,8.00
2023-04-07T21:27:52.925Z,8.00
2023-04-07T21:30:22.464Z,8.00
2023-04-07T21:32:50.615Z,8.10
2023-04-07T21:35:19.789Z,8.20
2023-04-07T21:37:49.303Z,8.20
2023-04-07T21:40:17.441Z,8.10
2023-04-07T21:42:45.524Z,8.10
2023-04-07T21:45:13.850Z,8.00
2023-04-07T21:47:41.933Z,7.80
2023-04-07T21:50:10.672Z,7.80
2023-04-07T21:52:38.763Z,7.80
2023-04-07T21:55:10.050Z,7.90
2023-04-07T21:57:38.240Z,7.90
2023-04-07T22:00:08.314Z,7.80
2023-04-07T22:02:36.690Z,8.00
2023-04-07T22:05:05.203Z,7.90
2023-04-07T22:07:33.628Z,8.00
2023-04-07T22:10:01.699Z,8.00
2023-04-07T22:12:31.130Z,7.80
2023-04-07T22:14:59.135Z,7.80
2023-04-07T22:17:27.358Z,9.10
2023-04-07T22:19:55.739Z,7.80
2023-04-07T22:22:23.884Z,7.80
2023-04-07T22:24:51.969Z,7.80
2023-04-07T22:27:20.046Z,7.80
2023-04-07T22:29:49.481Z,7.80
2023-04-07T22:32:17.519Z,7.50
2023-04-07T22:34:45.693Z,8.00
2023-04-07T22:37:13.896Z,7.70
2023-04-07T22:39:41.903Z,7.80
2023-04-07T22:42:10.009Z,7.70
2023-04-07T22:44:38.041Z,7.80
2023-04-07T22:47:07.629Z,7.70
2023-04-07T22:49:35.881Z,7.90
2023-04-07T22:52:03.956Z,8.00
2023-04-07T22:54:32.127Z,8.10
2023-04-07T22:57:01.734Z,8.10
2023-04-07T22:59:29.850Z,8.20
2023-04-07T23:01:58.070Z,8.20
2023-04-07T23:04:27.990Z,8.20
2023-04-07T23:06:56.197Z,8.40
2023-04-07T23:09:24.296Z,8.20
2023-04-07T23:11:52.385Z,8.40
2023-04-07T23:14:20.489Z,8.20
2023-04-07T23:16:48.598Z,8.20
2023-04-07T23:19:17.211Z,8.30
2023-04-07T23:21:46.707Z,8.40
2023-04-07T23:24:14.752Z,8.30
2023-04-07T23:26:42.832Z,8.30
2023-04-07T23:29:10.977Z,8.30
2023-04-07T23:31:39.094Z,8.10
2023-04-07T23:34:07.201Z,8.30
2023-04-07T23:36:35.246Z,8.40
2023-04-07T23:39:04.806Z,8.60
2023-04-07T23:41:33.033Z,8.30
2023-04-07T23:44:01.469Z,8.30
2023-04-07T23:46:29.576Z,8.30
2023-04-07T23:48:57.715Z,8.30
2023-04-07T23:51:26.525Z,8.20
2023-04-07T23:53:54.670Z,8.10
2023-04-07T23:56:24.266Z,8.00
2023-04-07T23:58:52.411Z,8.00
